• Join FlightAware (Why Join?)
  • Login
  • US Flag 
04:35AM EDT


 

Airport Tracker/Info


-or-


 

Live Flight TrackerFlight Track Log ✈ UAL3767 ✈ 05-May-2013 ✈ KAUS - KIAD

Flight Track Log - Related Links

Times and Time Zones

All times are in EDT time to prevent confusion due to time zone crossing. See the UAL3767 flight status page for this flight to view local times or setup timezone preferences in your user account.

Time Position Orientation Groundspeed Altitude Reporting Facility
EDT Latitude Longitude Course Direction KTS MPH feet Rate Location/Type
05:35PM 30.2897 -97.5508 97° East 228 262 5,000  Level Houston Center
05:36PM 30.3053 -97.4617 79° East 277 319 7,300 2,340 Climbing Houston Center
05:37PM 30.3161 -97.3694 82° East 288 331 9,900 2,160 Climbing Houston Center
05:38PM 30.3286 -97.2706 82° East 307 353 11,800 1,620 Climbing Houston Center
05:39PM 30.3333 -96.8993 90° East  Level FlightAware Approximate
05:39PM 30.3456 -97.1372 82° East 353 406 13,300  Level Houston Center
05:40PM 30.3286 -96.7527 97° East  Level FlightAware Approximate
05:40PM 30.3486 -97.0108 88° East 394 453 15,000  Level Houston Center
05:42PM 30.3319 -96.7525 94° East 405 466 18,400 1,560 Climbing Houston Center
05:43PM 30.3244 -96.6175 94° East 416 479 19,900 1,440 Climbing Houston Center
05:44PM 30.3147 -96.4789 95° East 427 491 21,400 1,440 Climbing Houston Center
05:45PM 30.3050 -96.3144 94° East 437 503 22,900 1,320 Climbing Houston Center
05:46PM 30.2953 -96.1708 94° East 444 511 24,200 1,200 Climbing Houston Center
05:47PM 30.2886 -96.0197 93° East 446 513 25,500 1,140 Climbing Houston Center
05:48PM 30.3108 -95.8792 80° East 442 509 26,600 960 Climbing Houston Center
05:49PM 30.3444 -95.7394 74° East 446 513 27,600 840 Climbing Houston Center
05:50PM 30.3789 -95.5975 74° East 453 521 28,400 720 Climbing Houston Center
05:51PM 30.4133 -95.4522 75° East 461 531 29,200 720 Climbing Houston Center
05:52PM 30.4456 -95.3067 76° East 467 537 29,900 660 Climbing Houston Center
05:53PM 30.5042 -95.1347 68° East 476 548 30,600 600 Climbing Houston Center
05:54PM 30.5617 -94.9961 64° Northeast 477 549 31,200 540 Climbing Houston Center
05:55PM 30.6189 -94.8550 65° Northeast 483 556 31,800 660 Climbing Houston Center
05:56PM 30.6775 -94.7142 64° Northeast 485 558 32,600 840 Climbing Houston Center
05:57PM 30.7339 -94.5764 65° Northeast 477 549 33,600 1,020 Climbing Houston Center
05:58PM 30.8008 -94.4131 64° Northeast 472 543 34,800 660 Climbing Houston Center
05:59PM 30.8556 -94.2778 65° Northeast 467 537 35,000 60 Climbing Houston Center
06:00PM 30.9067 -94.1503 65° Northeast 472 543 35,000  Level Houston Center
06:02PM 30.9656 -94.0053 65° Northeast 487 560 35,000  Level Houston Center
06:03PM 31.0383 -93.8272 64° Northeast 504 580 35,000  Level Houston Center
06:04PM 31.0969 -93.6794 65° Northeast 503 579 35,000  Level Houston Center
06:05PM 31.1556 -93.5314 65° Northeast 501 577 35,000  Level Houston Center
06:07PM 31.2722 -93.2361 65° Northeast 499 574 35,000  Level Houston Center
06:08PM 31.3311 -93.0892 65° Northeast 499 574 35,000  Level Houston Center
06:09PM 31.4003 -92.9119 65° Northeast 498 573 35,000  Level Houston Center
06:10PM 31.4575 -92.7625 66° East 503 579 35,000  Level Houston Center
06:11PM 31.5169 -92.6136 65° Northeast 506 582 35,000  Level Houston Center
06:12PM 31.5736 -92.4614 66° East 509 586 35,000  Level Houston Center
06:13PM 31.6325 -92.3094 65° Northeast 510 587 35,000  Level Houston Center
06:14PM 31.6914 -92.1558 66° East 515 593 35,000  Level Houston Center
06:15PM 31.7556 -91.9831 66° East 515 593 35,000  Level Houston Center
06:16PM 31.8144 -91.8292 66° East 516 594 35,000  Level Houston Center
06:17PM 31.8719 -91.6758 66° East 514 592 35,000  Level Houston Center
06:18PM 31.9297 -91.5200 66° East 517 595 35,000  Level Houston Center
06:19PM 31.9986 -91.3331 66° East 518 596 35,000  Level Houston Center
06:20PM 32.0569 -91.1783 66° East 518 596 35,000  Level Houston Center
06:21PM 32.1144 -91.0222 66° East 518 596 35,000  Level Houston Center
06:22PM 32.1803 -90.8433 66° East 516 594 35,000  Level Memphis Center
06:23PM 32.2372 -90.6864 67° East 516 594 35,000  Level Memphis Center
06:24PM 32.2939 -90.5319 67° East 516 594 35,000  Level Memphis Center
06:25PM 32.3506 -90.3744 67° East 516 594 35,000  Level Memphis Center
06:26PM 32.4067 -90.2194 67° East 516 594 35,000  Level Memphis Center
06:27PM 32.4628 -90.0619 67° East 516 594 35,000  Level Memphis Center
06:28PM 32.5208 -89.9039 66° East 511 588 35,000  Level Memphis Center
06:29PM 32.5764 -89.7483 67° East 516 594 35,000  Level Memphis Center
06:30PM 32.6278 -89.6025 67° East 516 594 35,000  Level Memphis Center
06:31PM 32.6853 -89.4489 66° East 516 594 35,000  Level Memphis Center
06:32PM 32.7403 -89.2878 68° East 516 594 35,000  Level Memphis Center
06:33PM 32.7972 -89.1267 67° East 516 594 35,000  Level Memphis Center
06:34PM 32.8500 -88.9725 68° East 516 594 35,000  Level Memphis Center
06:35PM 32.9044 -88.8231 67° East 505 581 35,000  Level Memphis Center
06:36PM 32.9528 -88.6786 68° East 481 554 35,000  Level Memphis Center
06:37PM 33.0031 -88.5342 67° East 476 548 35,000  Level Memphis Center
06:38PM 33.0528 -88.3844 68° East 476 548 35,000  Level Memphis Center
06:41PM 33.1750 -88.0097 69° East 504 580 35,000  Level Atlanta Center
06:42PM 33.2278 -87.8581 67° East 499 574 35,000  Level Atlanta Center
06:43PM 33.2783 -87.7064 68° East 499 574 35,000  Level Atlanta Center
06:44PM 33.3308 -87.5519 68° East 499 574 35,000 -360 Level Atlanta Center
06:45PM 33.3811 -87.3947 69° East 499 574 34,300 -540 Descending Atlanta Center
06:46PM 33.4375 -87.2375 67° East 504 580 34,000 -180 Descending Atlanta Center
06:47PM 33.5183 -87.0961 56° Northeast 504 580 34,000  Level Atlanta Center
06:48PM 33.6031 -86.9644 52° Northeast 504 580 34,000 -420 Level Atlanta Center
06:49PM 33.6875 -86.8275 53° Northeast 504 580 33,200 -540 Descending Atlanta Center
06:50PM 33.7556 -86.6772 61° Northeast 512 589 33,000 -120 Descending Atlanta Center
06:51PM 33.8006 -86.5186 71° East 500 575 33,000  Level Atlanta Center
06:52PM 33.8433 -86.3572 72° East 495 570 33,000  Level Atlanta Center
06:53PM 33.8900 -86.1983 70° East 495 570 33,000  Level Atlanta Center
06:54PM 33.9367 -86.0369 71° East 500 575 33,000  Level Atlanta Center
06:55PM 33.9831 -85.8750 71° East 500 575 33,000  Level Atlanta Center
06:56PM 34.0311 -85.7183 70° East 493 567 33,000  Level Atlanta Center
06:57PM 34.0772 -85.5586 71° East 498 573 33,000  Level Atlanta Center
06:58PM 34.1272 -85.3814 71° East 503 579 33,000  Level Atlanta Center
06:59PM 34.1706 -85.2214 72° East 497 572 33,000  Level Atlanta Center
07:00PM 34.2158 -85.0636 71° East 497 572 33,000  Level Atlanta Center
07:01PM 34.2589 -84.9008 72° East 497 572 33,000  Level Atlanta Center
07:02PM 34.3036 -84.7403 71° East 502 578 33,000  Level Atlanta Center
07:03PM 34.3483 -84.5797 71° East 502 578 33,000  Level Atlanta Center
07:04PM 34.3864 -84.4339 72° East 502 578 33,000  Level Atlanta Center
07:05PM 34.4328 -84.2731 71° East 494 568 33,100  Climbing Atlanta Center
07:06PM 34.4706 -84.1219 73° East 479 551 33,000 -60 Descending Atlanta Center
07:07PM 34.5122 -83.9683 72° East 479 551 33,000  Level Atlanta Center
07:08PM 34.5536 -83.8067 73° East 485 558 33,000  Level Atlanta Center
07:09PM 34.6158 -83.6350 66° East 495 570 33,000  Level Atlanta Center
07:10PM 34.6697 -83.5033 64° Northeast 500 575 33,000  Level Atlanta Center
07:11PM 34.7356 -83.3461 63° Northeast 500 575 33,000  Level Atlanta Center
07:12PM 34.8075 -83.1711 63° Northeast 517 595 33,000  Level Atlanta Center
07:13PM 34.8711 -83.0133 64° Northeast 520 598 33,000  Level Atlanta Center
07:14PM 34.9261 -82.8786 63° Northeast 512 589 33,000  Level Atlanta Center
07:15PM 34.9914 -82.7178 64° Northeast 507 583 33,000  Level Atlanta Center
07:16PM 35.0542 -82.5594 64° Northeast 512 589 33,000  Level Atlanta Center
07:17PM 35.1147 -82.4061 64° Northeast 505 581 33,000  Level Atlanta Center
07:18PM 35.1775 -82.2500 64° Northeast 505 581 33,000  Level Atlanta Center
07:19PM 35.2375 -82.0961 64° Northeast 505 581 33,000  Level Atlanta Center
07:20PM 35.2997 -81.9419 64° Northeast 505 581 33,000  Level Atlanta Center
07:21PM 35.3656 -81.7747 64° Northeast 500 575 33,000  Level Atlanta Center
07:22PM 35.4253 -81.6200 65° Northeast 500 575 33,000  Level Atlanta Center
07:23PM 35.4828 -81.4681 65° Northeast 488 562 33,000  Level Atlanta Center
07:24PM 35.5300 -81.3439 65° Northeast 488 562 33,000  Level Atlanta Center
07:25PM 35.5989 -81.1528 66° East 493 567 33,000  Level Atlanta Center
07:26PM 35.6558 -81.0128 63° Northeast 501 577 33,000  Level Atlanta Center
07:27PM 35.7147 -80.8594 65° Northeast 494 568 33,000 -180 Level Atlanta Center
07:28PM 35.7750 -80.7011 65° Northeast 482 555 32,700 -660 Descending Atlanta Center
07:30PM 35.8931 -80.3867 65° Northeast 461 531 31,000 -540 Descending Washington Center
07:31PM 35.9467 -80.2436 65° Northeast 476 548 31,000  Level Washington Center
07:32PM 36.0003 -80.0953 66° East 471 542 31,000  Level Washington Center
07:33PM 36.0619 -79.9525 62° Northeast 471 542 31,000  Level Washington Center
07:34PM 36.1400 -79.8153 55° Northeast 476 548 31,000 -360 Level Washington Center
07:35PM 36.2158 -79.6753 56° Northeast 489 563 30,400 -840 Descending Washington Center
07:36PM 36.3022 -79.5250 54° Northeast 489 563 29,400 -1,020 Descending Washington Center
07:37PM 36.3686 -79.4072 55° Northeast 473 544 28,400 -1,020 Descending Washington Center
07:38PM 36.4483 -79.2611 56° Northeast 468 539 27,400 -1,020 Descending Washington Center
07:39PM 36.5211 -79.1328 55° Northeast 461 531 26,400 -1,020 Descending Washington Center
07:40PM 36.5933 -79.0094 54° Northeast 450 518 25,400 -720 Descending Washington Center
07:41PM 36.6617 -78.8828 56° Northeast 445 512 25,000 -240 Descending Washington Center
07:42PM 36.7211 -78.7714 56° Northeast 435 501 25,000  Level Washington Center
07:43PM 36.7956 -78.6344 56° Northeast 430 495 25,000  Level Washington Center
07:44PM 36.8675 -78.5075 55° Northeast 435 501 25,000 -240 Level Washington Center
07:45PM 36.9353 -78.3828 56° Northeast 435 501 24,600 -720 Descending Washington Center
07:46PM 37.0069 -78.2500 56° Northeast 442 509 23,600 -840 Descending Washington Center
07:47PM 37.1008 -78.1594 38° Northeast 451 519 23,000 -300 Descending Washington Center
07:48PM 37.2175 -78.0694 32° Northeast 446 513 23,000  Level Washington Center
07:49PM 37.3233 -77.9867 32° Northeast 446 513 23,000  Level Washington Center
07:50PM 37.4292 -77.9064 31° Northeast 446 513 23,000 -120 Level Washington Center
07:51PM 37.5350 -77.8258 31° Northeast 440 506 22,800 -1,200 Descending Washington Center
07:52PM 37.6469 -77.7583 26° Northeast 440 506 20,700 -2,040 Descending Washington Center
07:53PM 37.7586 -77.6931 25° Northeast 435 501 18,700 -1,980 Descending Washington Center
07:54PM 37.8639 -77.6328 24° Northeast 424 488 16,800 -2,040 Descending Washington Center
07:55PM 37.9628 -77.5778 24° Northeast 407 468 14,700 -2,040 Descending Washington Center
07:56PM 38.0428 -77.5322 24° Northeast 378 435 12,800 -2,040 Descending Washington Center
07:57PM 38.1269 -77.4844 24° Northeast 347 399 10,700 -1,440 Descending Washington Center
07:58PM 38.2028 -77.4361 27° Northeast 315 362 10,000 -840 Descending Washington Center
07:59PM 38.2767 -77.3903 26° Northeast 296 341 9,000 -1,200 Descending Washington Center
08:00PM 38.3542 -77.3578 18° North 291 335 7,700 -1,380 Descending Washington Center
08:01PM 38.4333 -77.3597 359° North 281 323 6,400 -1,440 Descending Washington Center
08:02PM 38.5208 -77.3642 358° North 281 323 4,800 -1,200 Descending Washington Center
08:03PM 38.5958 -77.3661 359° North 281 323 4,000 -480 Descending Washington Center
08:04PM 38.6667 -77.3667 360° North 260 299 4,000  Level Potomac TRACON
08:05PM 38.7333 -77.3667 360° North 269 310 4,000  Level Potomac TRACON
08:06PM 38.8000 -77.3500 11° North 274 315 4,000  Level Potomac TRACON
08:07PM 38.8667 -77.3500 360° North 264 304 4,000  Level Potomac TRACON
08:08PM 38.9500 -77.3500 360° North 257 296 4,000  Level Potomac TRACON
08:09PM 39.0333 -77.3500 360° North 253 291 4,000 -180 Level Potomac TRACON
08:10PM 39.0833 -77.3500 360° North 220 253 3,700 -540 Descending Potomac TRACON
08:11PM 39.1333 -77.3667 346° North 212 244 3,000 -360 Descending Potomac TRACON
08:12PM 39.1000 -77.4333 237° Southwest 212 244 3,000 -420 Level Potomac TRACON
08:13PM 39.0500 -77.4500 195° South 195 224 2,300 -960 Descending Potomac TRACON
08:14PM 39.0000 -77.4667 195° South 149 171 1,100 -1,140 Descending Potomac TRACON
08:16PM 38.9474 -77.4599 191° South  Level Estimated
08:23PM 38.9474 -77.4599 191° South  Level Estimated
08:24PM 38.9474 -77.4599 191° South  Level Estimated
08:25PM 38.9474 -77.4599 191° South  Level Estimated
08:26PM 38.9474 -77.4599 191° South  Level Estimated